Time;durP1;ratioP1;P1;durP2;ratioP2;P2;SDS_P1;SDS_P2;PMS_P1;PMS_P2;Temp;Humidity;BMP_temperature;BMP_pressure;BME280_temperature;BME280_humidity;BME280_pressure;Samples;Min_cycle;Max_cycle;Signal;HPM_P1;HPM_P2
2023/04/26 00:02:11;;;;;;;2.20;1.43;;;8.40;97.80;;;;;;5073095;28;20198;-76
2023/04/26 00:04:39;;;;;;;1.50;1.40;;;8.30;98.00;;;;;;5073247;28;20634;-76
2023/04/26 00:07:06;;;;;;;1.33;1.27;;;8.30;98.10;;;;;;5072192;28;20630;-76
2023/04/26 00:09:32;;;;;;;2.30;1.20;;;8.20;98.20;;;;;;5073193;28;20198;-77
2023/04/26 00:11:58;;;;;;;1.27;1.23;;;8.30;98.20;;;;;;5072486;28;20260;-76
2023/04/26 00:14:24;;;;;;;1.47;1.37;;;8.30;98.30;;;;;;5073050;28;20167;-75
2023/04/26 00:16:50;;;;;;;1.00;1.00;;;8.30;98.40;;;;;;5073004;28;20181;-75
2023/04/26 00:19:17;;;;;;;1.60;1.50;;;8.30;98.50;;;;;;5073507;28;20504;-76
2023/04/26 00:21:43;;;;;;;1.20;1.20;;;8.30;98.60;;;;;;5073055;28;20177;-74
2023/04/26 00:24:09;;;;;;;1.17;1.17;;;8.30;98.50;;;;;;5073062;28;20174;-76
2023/04/26 00:26:35;;;;;;;1.30;1.30;;;8.30;98.60;;;;;;5072854;28;20174;-76
2023/04/26 00:29:03;;;;;;;1.80;1.20;;;8.30;98.60;;;;;;5071655;28;20564;-76
2023/04/26 00:31:28;;;;;;;1.37;1.27;;;8.30;98.50;;;;;;5073441;28;20202;-75
2023/04/26 00:33:54;;;;;;;1.20;1.20;;;8.20;98.50;;;;;;5072872;28;20191;-76
2023/04/26 00:36:20;;;;;;;1.40;1.40;;;8.20;98.70;;;;;;5072898;28;20197;-78
2023/04/26 00:38:46;;;;;;;5.77;1.40;;;8.10;98.90;;;;;;5073454;28;20166;-77
2023/04/26 00:41:12;;;;;;;1.30;1.30;;;8.10;99.00;;;;;;5072608;28;20181;-78
2023/04/26 00:43:39;;;;;;;1.07;1.07;;;8.10;99.10;;;;;;5073376;28;20870;-77
2023/04/26 00:46:06;;;;;;;1.40;1.40;;;8.10;99.30;;;;;;5070261;28;20611;-76
2023/04/26 00:48:33;;;;;;;3.03;1.30;;;8.00;99.70;;;;;;5069878;28;20638;-76
2023/04/26 00:51:00;;;;;;;1.20;1.20;;;8.00;99.70;;;;;;5072533;28;20628;-76
2023/04/26 00:53:26;;;;;;;1.20;1.20;;;8.00;99.80;;;;;;5072419;28;20311;-76
2023/04/26 00:55:52;;;;;;;1.10;1.10;;;8.00;99.90;;;;;;5072867;28;20224;-74
2023/04/26 00:58:18;;;;;;;3.37;1.30;;;7.90;99.90;;;;;;5072978;28;20186;-76
2023/04/26 01:00:44;;;;;;;1.70;1.60;;;7.90;99.90;;;;;;5072581;28;20189;-76
2023/04/26 01:03:11;;;;;;;1.30;1.30;;;7.90;99.90;;;;;;5072277;28;20210;-76
2023/04/26 01:05:40;;;;;;;1.40;1.40;;;7.80;99.90;;;;;;5072931;28;20243;-75
2023/04/26 01:08:06;;;;;;;1.70;1.60;;;7.80;99.90;;;;;;5072586;28;20177;-76
2023/04/26 01:10:33;;;;;;;1.10;1.10;;;7.80;99.90;;;;;;5071422;28;20179;-77
2023/04/26 01:13:00;;;;;;;1.30;1.30;;;7.80;99.90;;;;;;5072400;28;20657;-76
2023/04/26 01:15:29;;;;;;;1.30;1.30;;;7.80;99.90;;;;;;5073234;28;20210;-77
2023/04/26 01:17:56;;;;;;;2.03;1.53;;;7.80;99.90;;;;;;5077682;28;20197;-75
2023/04/26 01:20:22;;;;;;;1.10;1.10;;;7.70;99.90;;;;;;5078019;28;20188;-76
2023/04/26 01:22:48;;;;;;;1.17;1.17;;;7.80;99.90;;;;;;5073305;28;20201;-75
2023/04/26 01:25:16;;;;;;;1.23;1.23;;;7.70;99.90;;;;;;5072852;28;20242;-76
2023/04/26 01:27:41;;;;;;;1.03;1.03;;;7.60;99.90;;;;;;5073088;28;20182;-76
2023/04/26 01:30:11;;;;;;;1.20;1.20;;;7.50;99.90;;;;;;5074796;28;20222;-74
2023/04/26 01:32:37;;;;;;;1.00;1.00;;;8.70;99.90;;;;;;5075561;28;20170;-77
2023/04/26 01:35:03;;;;;;;2.33;1.20;;;7.60;99.90;;;;;;5076123;28;20273;-74
2023/04/26 01:37:28;;;;;;;1.30;1.20;;;7.50;99.90;;;;;;5075744;28;20174;-76
2023/04/26 01:39:55;;;;;;;1.00;1.00;;;7.40;99.90;;;;;;5074560;28;20170;-77
2023/04/26 01:42:21;;;;;;;1.10;1.10;;;7.40;99.90;;;;;;5074091;28;20377;-76
2023/04/26 01:44:47;;;;;;;1.10;1.10;;;7.40;99.90;;;;;;5074271;28;20742;-76
2023/04/26 01:47:12;;;;;;;1.13;1.13;;;7.40;99.90;;;;;;5076169;28;20182;-75
2023/04/26 01:49:38;;;;;;;0.90;0.90;;;7.40;99.90;;;;;;5074514;28;20183;-76
2023/04/26 01:52:04;;;;;;;3.00;1.23;;;7.30;99.90;;;;;;5075473;28;20182;-75
2023/04/26 01:54:30;;;;;;;1.27;1.17;;;7.40;99.90;;;;;;5076191;28;20184;-75
2023/04/26 01:56:55;;;;;;;1.30;1.30;;;7.30;99.90;;;;;;5076692;28;20729;-75
2023/04/26 01:59:21;;;;;;;1.00;1.00;;;7.40;99.90;;;;;;5076695;28;20266;-75
2023/04/26 02:01:47;;;;;;;1.63;1.10;;;7.30;99.90;;;;;;5075699;28;20172;-74
2023/04/26 02:04:13;;;;;;;1.20;1.20;;;7.30;99.90;;;;;;5076730;28;20229;-76
2023/04/26 02:06:40;;;;;;;0.97;0.97;;;7.30;99.90;;;;;;5075297;28;20171;-74
2023/04/26 02:09:11;;;;;;;2.40;1.00;;;7.30;99.90;;;;;;5075816;28;20220;-75
2023/04/26 02:11:36;;;;;;;1.00;1.00;;;7.30;99.90;;;;;;5075473;28;20175;-76
2023/04/26 02:14:02;;;;;;;1.00;1.00;;;7.30;99.90;;;;;;5075142;28;20220;-75
2023/04/26 02:16:28;;;;;;;1.10;1.10;;;7.10;99.90;;;;;;5075451;28;20564;-75
2023/04/26 02:18:54;;;;;;;0.97;0.97;;;7.10;99.90;;;;;;5075246;28;20219;-76
2023/04/26 02:21:20;;;;;;;1.70;0.90;;;6.90;99.90;;;;;;5074903;28;20173;-76
2023/04/26 02:23:46;;;;;;;1.20;1.20;;;6.80;99.90;;;;;;5076971;28;20231;-76
2023/04/26 02:26:12;;;;;;;1.23;1.20;;;6.80;99.90;;;;;;5075157;28;20172;-76
2023/04/26 02:28:38;;;;;;;0.90;0.90;;;6.70;99.90;;;;;;5075173;28;20172;-76
2023/04/26 02:31:04;;;;;;;1.20;1.20;;;6.70;99.90;;;;;;5075065;28;20187;-75
2023/04/26 02:33:30;;;;;;;1.40;1.30;;;6.70;99.90;;;;;;5074482;28;20173;-75
2023/04/26 02:35:56;;;;;;;1.10;1.10;;;6.70;99.90;;;;;;5074846;28;20186;-76
2023/04/26 02:38:25;;;;;;;0.97;0.97;;;6.70;99.90;;;;;;5074772;28;20180;-76
2023/04/26 02:40:57;;;;;;;0.93;0.93;;;6.70;99.90;;;;;;5075889;28;20535;-76
2023/04/26 02:43:23;;;;;;;1.40;1.30;;;6.70;99.90;;;;;;5082078;28;20297;-75
2023/04/26 02:45:49;;;;;;;0.97;0.97;;;6.70;99.90;;;;;;5079154;28;20225;-76
2023/04/26 02:48:14;;;;;;;1.33;1.23;;;6.70;99.90;;;;;;5075854;28;20564;-77
2023/04/26 02:50:40;;;;;;;1.40;1.40;;;6.80;99.90;;;;;;5074209;28;20247;-76
2023/04/26 02:53:06;;;;;;;1.17;1.10;;;6.80;99.90;;;;;;5071844;28;20246;-75
2023/04/26 02:55:31;;;;;;;1.10;1.10;;;6.70;99.90;;;;;;5073212;28;20177;-76
2023/04/26 02:57:57;;;;;;;1.10;1.10;;;6.70;99.90;;;;;;5073302;28;20216;-79
2023/04/26 03:00:23;;;;;;;1.00;1.00;;;6.80;99.90;;;;;;5074818;28;20177;-76
2023/04/26 03:02:49;;;;;;;1.20;1.20;;;6.70;99.90;;;;;;5074248;28;20232;-78
2023/04/26 03:05:15;;;;;;;1.07;1.07;;;6.60;99.90;;;;;;5074843;28;20633;-75
2023/04/26 03:07:41;;;;;;;1.07;1.07;;;6.60;99.90;;;;;;5074624;28;20231;-75
2023/04/26 03:10:08;;;;;;;0.90;0.90;;;6.60;99.90;;;;;;5074304;28;20174;-76
2023/04/26 03:12:37;;;;;;;1.10;1.10;;;6.50;99.90;;;;;;5074309;28;20197;-77
2023/04/26 03:15:03;;;;;;;1.20;0.97;;;6.50;99.90;;;;;;5074047;28;20198;-77
2023/04/26 03:17:29;;;;;;;1.10;1.10;;;6.50;99.90;;;;;;5074974;28;20174;-76
2023/04/26 03:19:54;;;;;;;1.37;1.20;;;6.50;99.90;;;;;;5075075;28;20597;-75
2023/04/26 03:22:20;;;;;;;1.00;1.00;;;6.40;99.90;;;;;;5073488;28;20220;-74
2023/04/26 03:24:46;;;;;;;1.03;1.03;;;6.40;99.90;;;;;;5073642;28;20177;-76
2023/04/26 03:27:12;;;;;;;0.93;0.93;;;6.40;99.90;;;;;;5074662;28;20709;-76
2023/04/26 03:29:38;;;;;;;1.20;1.13;;;6.40;99.90;;;;;;5075211;28;20178;-77
2023/04/26 03:32:06;;;;;;;1.30;1.30;;;6.40;99.90;;;;;;5074818;28;20523;-78
2023/04/26 03:34:32;;;;;;;1.10;1.10;;;6.50;99.90;;;;;;5073675;28;20174;-78
2023/04/26 03:36:58;;;;;;;1.10;1.10;;;6.40;99.90;;;;;;5076376;28;20174;-78
2023/04/26 03:39:24;;;;;;;1.33;1.30;;;6.40;99.90;;;;;;5074739;28;20174;-75
2023/04/26 03:41:49;;;;;;;1.60;1.50;;;6.40;99.90;;;;;;5073417;28;20631;-74
2023/04/26 03:44:15;;;;;;;7.27;1.30;;;6.50;99.90;;;;;;5072409;28;20189;-75
2023/04/26 03:46:42;;;;;;;4.30;2.90;;;6.50;99.90;;;;;;5073185;28;20184;-77
2023/04/26 03:49:07;;;;;;;1.77;1.67;;;6.40;99.90;;;;;;5073503;28;20179;-76
2023/04/26 03:51:33;;;;;;;3.07;1.50;;;6.40;99.90;;;;;;5072669;28;20275;-75
2023/04/26 03:53:59;;;;;;;2.57;1.20;;;6.40;99.90;;;;;;5073153;28;20177;-76
2023/04/26 03:56:25;;;;;;;1.37;1.27;;;6.40;99.90;;;;;;5071702;28;20290;-75
2023/04/26 03:58:50;;;;;;;1.30;1.30;;;6.40;99.90;;;;;;5073087;28;20184;-74
2023/04/26 04:01:16;;;;;;;1.17;1.17;;;6.40;99.90;;;;;;5071890;28;20200;-74
2023/04/26 04:03:42;;;;;;;1.20;1.20;;;6.40;99.90;;;;;;5071818;28;20266;-76
2023/04/26 04:06:11;;;;;;;1.33;1.33;;;6.30;99.90;;;;;;5074272;28;20187;-76
2023/04/26 04:08:37;;;;;;;1.40;1.40;;;6.30;99.90;;;;;;5080971;28;20175;-75
2023/04/26 04:11:03;;;;;;;1.70;1.60;;;6.30;99.90;;;;;;5075164;28;20184;-76
2023/04/26 04:13:28;;;;;;;1.60;1.50;;;6.40;99.90;;;;;;5075413;28;20768;-76
2023/04/26 04:15:54;;;;;;;1.57;1.57;;;6.50;99.90;;;;;;5073180;28;20183;-75
2023/04/26 04:18:20;;;;;;;1.50;1.40;;;6.50;99.90;;;;;;5071618;28;20539;-77
2023/04/26 04:20:46;;;;;;;1.40;1.40;;;6.50;99.90;;;;;;5072980;28;20181;-78
2023/04/26 04:23:12;;;;;;;5.90;1.60;;;6.50;99.90;;;;;;5073133;28;20209;-76
2023/04/26 04:25:38;;;;;;;1.50;1.50;;;6.70;99.90;;;;;;5072733;28;20173;-75
2023/04/26 04:28:04;;;;;;;2.30;1.70;;;6.70;99.90;;;;;;5072897;28;20194;-77
2023/04/26 04:30:30;;;;;;;1.60;1.40;;;6.70;99.90;;;;;;5073253;28;20260;-79
2023/04/26 04:32:58;;;;;;;1.80;1.70;;;6.70;99.90;;;;;;5079751;28;20185;-78
2023/04/26 04:35:29;;;;;;;1.80;1.70;;;6.80;99.90;;;;;;5089833;28;20309;-76
2023/04/26 04:37:57;;;;;;;1.90;1.53;;;7.00;99.90;;;;;;5072627;28;20200;-75
2023/04/26 04:40:27;;;;;;;1.47;1.47;;;7.10;99.90;;;;;;5072982;28;20179;-76
2023/04/26 04:42:54;;;;;;;4.00;1.40;;;7.30;99.90;;;;;;5071115;28;20236;-76
2023/04/26 04:45:20;;;;;;;5.03;1.50;;;7.30;99.90;;;;;;5073052;28;20169;-75
2023/04/26 04:47:46;;;;;;;2.60;1.60;;;7.50;99.90;;;;;;5072727;28;20177;-75
2023/04/26 04:50:13;;;;;;;1.50;1.40;;;7.60;99.90;;;;;;5073150;28;20165;-73
2023/04/26 04:52:39;;;;;;;2.90;1.67;;;7.60;99.90;;;;;;5073117;28;20166;-76
2023/04/26 04:55:05;;;;;;;2.03;1.57;;;7.70;99.90;;;;;;5072999;28;20171;-77
2023/04/26 04:57:31;;;;;;;1.60;1.50;;;7.70;99.90;;;;;;5071311;28;20185;-76
2023/04/26 04:59:57;;;;;;;1.70;1.60;;;7.80;99.90;;;;;;5073221;28;20178;-77
2023/04/26 05:02:24;;;;;;;1.80;1.70;;;7.90;99.90;;;;;;5072848;28;20229;-75
2023/04/26 05:04:49;;;;;;;2.10;1.90;;;8.00;99.90;;;;;;5075234;28;20190;-77
2023/04/26 05:07:17;;;;;;;1.80;1.70;;;7.90;99.90;;;;;;5076697;28;20171;-75
2023/04/26 05:09:42;;;;;;;1.60;1.50;;;7.90;99.90;;;;;;5076891;28;20174;-75
2023/04/26 05:12:08;;;;;;;1.47;1.47;;;7.90;99.90;;;;;;5075537;28;20172;-75
2023/04/26 05:14:34;;;;;;;1.40;1.40;;;8.00;99.90;;;;;;5076463;28;20181;-75
2023/04/26 05:17:00;;;;;;;2.97;1.53;;;8.00;99.90;;;;;;5076351;28;20520;-76
2023/04/26 05:19:26;;;;;;;1.80;1.70;;;8.00;99.90;;;;;;5077462;28;20193;-77
2023/04/26 05:21:52;;;;;;;1.80;1.70;;;8.00;99.90;;;;;;5078235;28;20542;-74
2023/04/26 05:24:18;;;;;;;4.20;1.50;;;7.80;99.90;;;;;;5076914;28;20542;-75
2023/04/26 05:26:43;;;;;;;2.10;1.80;;;7.80;99.90;;;;;;5076971;28;20184;-76
2023/04/26 05:29:09;;;;;;;4.23;1.80;;;7.70;99.90;;;;;;5078041;28;20205;-76
2023/04/26 05:31:35;;;;;;;2.33;1.63;;;7.80;99.90;;;;;;5077718;28;20263;-75
2023/04/26 05:34:01;;;;;;;2.47;1.67;;;7.80;99.90;;;;;;5076591;28;20167;-75
2023/04/26 05:36:31;;;;;;;2.20;2.00;;;8.00;99.90;;;;;;5086783;28;20178;-77
2023/04/26 05:38:57;;;;;;;2.20;2.10;;;8.10;99.90;;;;;;5084298;28;20183;-76
2023/04/26 05:41:23;;;;;;;1.90;1.80;;;8.20;99.90;;;;;;5078571;28;20190;-75
2023/04/26 05:43:49;;;;;;;2.53;1.70;;;8.50;99.90;;;;;;5075873;28;20267;-75
2023/04/26 05:46:14;;;;;;;1.67;1.50;;;8.60;99.90;;;;;;5075287;28;20232;-75
2023/04/26 05:48:40;;;;;;;2.50;1.80;;;8.80;99.90;;;;;;5075930;28;20239;-74
2023/04/26 05:51:06;;;;;;;2.10;1.80;;;8.90;99.90;;;;;;5076050;28;20533;-77
2023/04/26 05:53:32;;;;;;;1.90;1.70;;;9.00;99.90;;;;;;5075071;28;20182;-74
2023/04/26 05:55:58;;;;;;;1.80;1.70;;;9.10;99.90;;;;;;5074796;28;20313;-76
2023/04/26 05:58:24;;;;;;;3.80;1.90;;;9.10;99.90;;;;;;5074118;28;20300;-77
2023/04/26 06:00:50;;;;;;;2.00;1.80;;;9.10;99.90;;;;;;5074556;28;20230;-74
2023/04/26 06:03:15;;;;;;;4.47;1.80;;;9.10;99.90;;;;;;5076112;28;20207;-75
2023/04/26 06:05:41;;;;;;;2.00;1.77;;;8.90;99.90;;;;;;5074472;28;20183;-76
2023/04/26 06:08:07;;;;;;;2.77;1.70;;;8.90;99.90;;;;;;5075638;28;20583;-73
2023/04/26 06:10:35;;;;;;;3.53;1.90;;;9.00;99.90;;;;;;5075679;28;20182;-78
2023/04/26 06:13:00;;;;;;;1.90;1.80;;;9.20;99.90;;;;;;5075971;28;20173;-74
2023/04/26 06:15:26;;;;;;;2.47;2.10;;;9.20;99.90;;;;;;5075043;28;20174;-74
2023/04/26 06:17:52;;;;;;;1.80;1.80;;;9.40;99.90;;;;;;5076163;28;20579;-78
2023/04/26 06:20:18;;;;;;;2.53;2.13;;;9.50;99.90;;;;;;5075424;28;20671;-76
2023/04/26 06:22:44;;;;;;;2.17;1.97;;;9.60;99.90;;;;;;5074318;28;20205;-75
2023/04/26 06:25:10;;;;;;;1.90;1.80;;;9.70;99.90;;;;;;5075869;28;20530;-75
2023/04/26 06:27:38;;;;;;;1.97;1.90;;;9.70;99.90;;;;;;5079410;28;20182;-76
2023/04/26 06:30:07;;;;;;;2.10;2.00;;;9.80;99.90;;;;;;5083327;28;20179;-76
2023/04/26 06:32:33;;;;;;;2.13;1.93;;;9.80;99.90;;;;;;5080358;28;20183;-76
2023/04/26 06:34:59;;;;;;;4.07;2.17;;;9.90;99.90;;;;;;5075260;28;20167;-78
2023/04/26 06:37:25;;;;;;;2.10;2.00;;;10.00;99.90;;;;;;5075092;28;20242;-80
2023/04/26 06:39:50;;;;;;;2.50;2.20;;;10.10;99.90;;;;;;5074615;28;20184;-83
2023/04/26 06:42:16;;;;;;;2.00;1.90;;;10.20;99.90;;;;;;5076604;28;20260;-76
2023/04/26 06:44:42;;;;;;;5.60;2.10;;;10.30;99.80;;;;;;5076921;28;20185;-76
2023/04/26 06:47:09;;;;;;;4.77;2.10;;;10.40;99.90;;;;;;5074287;28;20180;-75
2023/04/26 06:49:35;;;;;;;3.93;2.20;;;10.50;99.40;;;;;;5074531;28;20284;-76
2023/04/26 06:52:00;;;;;;;2.30;2.10;;;10.40;99.90;;;;;;5073366;28;20173;-77
2023/04/26 06:54:30;;;;;;;2.30;2.10;;;10.60;99.90;;;;;;5074172;28;20189;-82
2023/04/26 06:56:56;;;;;;;2.20;2.10;;;10.70;99.70;;;;;;5076673;28;20174;-75
2023/04/26 06:59:21;;;;;;;2.07;1.97;;;10.70;99.60;;;;;;5074344;28;20185;-77
2023/04/26 07:01:47;;;;;;;2.03;1.93;;;10.80;99.70;;;;;;5076010;28;20171;-78
2023/04/26 07:04:14;;;;;;;1.80;1.70;;;10.80;99.00;;;;;;5077640;28;20217;-80
2023/04/26 07:06:40;;;;;;;2.33;1.93;;;11.00;98.90;;;;;;5074745;28;20207;-75
2023/04/26 07:09:06;;;;;;;2.60;1.93;;;11.00;99.20;;;;;;5074160;28;20171;-76
2023/04/26 07:11:32;;;;;;;2.50;2.30;;;11.30;99.10;;;;;;5075229;28;20618;-74
2023/04/26 07:13:58;;;;;;;2.07;1.90;;;11.30;98.80;;;;;;5075769;28;20177;-76
2023/04/26 07:16:25;;;;;;;1.73;1.73;;;11.60;98.70;;;;;;5079294;28;20215;-77
2023/04/26 07:18:51;;;;;;;1.63;1.60;;;11.90;98.10;;;;;;5075662;28;20533;-76
2023/04/26 07:21:17;;;;;;;2.20;2.10;;;12.10;97.70;;;;;;5074380;28;20173;-78
2023/04/26 07:23:43;;;;;;;1.80;1.80;;;12.10;97.80;;;;;;5074961;28;20218;-77
2023/04/26 07:26:12;;;;;;;2.07;1.97;;;12.40;97.80;;;;;;5074376;28;20178;-77
2023/04/26 07:28:38;;;;;;;1.53;1.53;;;12.50;97.80;;;;;;5074408;28;20205;-77
2023/04/26 07:31:03;;;;;;;2.00;1.90;;;12.60;97.50;;;;;;5074547;28;20184;-78
2023/04/26 07:33:29;;;;;;;2.00;1.90;;;12.80;97.60;;;;;;5075704;28;20178;-76
2023/04/26 07:35:57;;;;;;;1.90;1.80;;;12.80;97.70;;;;;;5074290;28;20182;-78
2023/04/26 07:38:23;;;;;;;1.80;1.70;;;13.00;97.10;;;;;;5074670;28;20170;-75
2023/04/26 07:40:50;;;;;;;1.90;1.80;;;13.10;96.20;;;;;;5074085;28;20175;-79
2023/04/26 07:43:16;;;;;;;1.60;1.50;;;13.20;96.10;;;;;;5073604;28;20233;-78
2023/04/26 07:45:42;;;;;;;1.67;1.50;;;13.10;96.00;;;;;;5073741;28;20175;-78
2023/04/26 07:48:08;;;;;;;1.70;1.60;;;13.20;95.70;;;;;;5073939;28;20673;-75
2023/04/26 07:50:34;;;;;;;1.70;1.60;;;13.00;95.20;;;;;;5074769;28;20163;-75
2023/04/26 07:52:59;;;;;;;1.80;1.70;;;12.90;95.00;;;;;;5073773;28;20220;-75
2023/04/26 07:55:25;;;;;;;1.37;1.37;;;13.10;95.20;;;;;;5073613;28;20179;-75
2023/04/26 07:57:51;;;;;;;3.23;1.50;;;13.20;94.90;;;;;;5072254;28;20186;-77
2023/04/26 08:00:18;;;;;;;1.70;1.60;;;13.10;95.30;;;;;;5074043;28;20175;-75
2023/04/26 08:02:47;;;;;;;2.57;1.73;;;13.10;95.50;;;;;;5073858;28;20199;-74
2023/04/26 08:05:14;;;;;;;2.13;1.90;;;13.10;96.10;;;;;;5076378;28;20186;-76
2023/04/26 08:07:40;;;;;;;2.43;2.23;;;13.20;96.10;;;;;;5074980;28;20623;-75
2023/04/26 08:10:07;;;;;;;3.67;3.10;;;13.20;97.10;;;;;;5072941;28;20190;-74
2023/04/26 08:12:34;;;;;;;1.73;1.73;;;13.20;98.10;;;;;;5072833;28;20170;-75
2023/04/26 08:15:01;;;;;;;2.73;2.53;;;13.30;96.80;;;;;;5073257;28;20584;-76
2023/04/26 08:17:26;;;;;;;3.07;2.10;;;13.30;97.30;;;;;;5075359;28;20247;-75
2023/04/26 08:19:52;;;;;;;2.20;2.10;;;13.50;96.30;;;;;;5073934;28;20179;-74
2023/04/26 08:22:18;;;;;;;5.93;1.80;;;13.70;96.10;;;;;;5077097;28;20206;-75
2023/04/26 08:24:50;;;;;;;2.83;1.77;;;13.70;95.30;;;;;;5083820;28;20181;-76
2023/04/26 08:27:17;;;;;;;2.50;2.40;;;13.80;94.80;;;;;;5074528;28;20256;-75
2023/04/26 08:29:45;;;;;;;3.10;2.80;;;13.70;94.60;;;;;;5072993;28;20207;-75
2023/04/26 08:32:11;;;;;;;2.80;2.60;;;13.80;94.10;;;;;;5072052;28;20179;-74
2023/04/26 08:34:37;;;;;;;2.90;2.80;;;13.90;94.20;;;;;;5072388;28;20193;-75
2023/04/26 08:37:04;;;;;;;5.80;5.30;;;14.20;93.70;;;;;;5073073;28;20185;-75
2023/04/26 08:39:30;;;;;;;3.30;3.20;;;14.30;92.90;;;;;;5073994;28;20221;-77
2023/04/26 08:42:15;;;;;;;2.07;1.97;;;14.30;92.90;;;;;;5070638;28;20535;-76
2023/04/26 08:44:42;;;;;;;1.90;1.80;;;14.30;93.40;;;;;;5073107;28;20175;-77
2023/04/26 08:47:25;;;;;;;2.23;1.33;;;14.20;93.00;;;;;;5073344;28;20184;-75
2023/04/26 08:49:58;;;;;;;2.17;1.40;;;14.10;93.00;;;;;;5072969;28;20164;-75
2023/04/26 08:52:26;;;;;;;1.23;1.20;;;14.00;92.00;;;;;;5073739;28;20657;-76
2023/04/26 08:54:54;;;;;;;1.17;1.17;;;13.90;91.80;;;;;;5072673;28;20228;-75
2023/04/26 08:57:21;;;;;;;1.33;1.30;;;13.70;92.30;;;;;;5072842;28;20170;-75
2023/04/26 08:59:47;;;;;;;2.40;1.30;;;13.60;91.90;;;;;;5072496;28;20182;-75
2023/04/26 09:02:20;;;;;;;1.27;1.27;;;13.20;90.80;;;;;;5071752;28;20198;-75
2023/04/26 09:04:47;;;;;;;1.20;1.20;;;12.90;90.90;;;;;;5073101;28;20215;-75
2023/04/26 09:07:28;;;;;;;1.50;1.50;;;12.80;91.10;;;;;;5075098;28;20217;-75
2023/04/26 09:09:56;;;;;;;2.70;1.40;;;12.70;91.20;;;;;;5077219;28;20248;-75
2023/04/26 09:12:22;;;;;;;1.67;1.57;;;12.70;91.50;;;;;;5073583;28;20185;-75
2023/04/26 09:14:48;;;;;;;1.70;1.60;;;12.70;91.70;;;;;;5073573;28;20175;-77
2023/04/26 09:17:30;;;;;;;1.50;1.50;;;12.50;91.40;;;;;;5075854;28;20178;-76
2023/04/26 09:20:00;;;;;;;1.33;1.33;;;12.50;92.00;;;;;;5072688;28;20178;-75
2023/04/26 09:22:36;;;;;;;1.67;1.40;;;12.70;91.90;;;;;;5072956;28;20214;-74
2023/04/26 09:25:04;;;;;;;2.30;1.23;;;12.80;91.90;;;;;;5073158;28;20170;-74
2023/04/26 09:27:38;;;;;;;1.53;1.30;;;13.00;91.50;;;;;;5071388;28;20582;-76
2023/04/26 09:30:10;;;;;;;1.10;1.10;;;13.40;91.40;;;;;;5070783;28;20194;-77
2023/04/26 09:32:44;;;;;;;1.20;1.17;;;13.80;90.80;;;;;;5072415;28;20546;-74
2023/04/26 09:35:40;;;;;;;1.40;1.30;;;13.90;90.30;;;;;;5070024;28;20179;-76
2023/04/26 09:38:15;;;;;;;1.20;1.20;;;13.70;90.50;;;;;;5071441;28;20179;-75
2023/04/26 09:40:44;;;;;;;3.77;1.23;;;13.80;90.40;;;;;;5079026;28;20183;-75
2023/04/26 09:43:14;;;;;;;1.30;1.30;;;13.90;89.70;;;;;;5078638;28;20754;-74
2023/04/26 09:45:54;;;;;;;1.00;1.00;;;14.10;87.40;;;;;;5073788;28;20174;-75
2023/04/26 09:48:25;;;;;;;1.27;1.27;;;14.10;87.40;;;;;;5073412;28;20175;-74
2023/04/26 09:50:53;;;;;;;1.10;1.10;;;14.20;87.00;;;;;;5080039;28;20621;-75
2023/04/26 09:53:30;;;;;;;1.13;1.13;;;14.10;88.10;;;;;;5077425;28;20639;-75
2023/04/26 09:55:57;;;;;;;0.73;0.73;;;14.10;87.50;;;;;;5075755;28;20174;-76
2023/04/26 09:58:23;;;;;;;1.17;0.70;;;13.90;84.10;;;;;;5076066;28;20171;-77
2023/04/26 10:00:50;;;;;;;0.70;0.70;;;13.50;82.90;;;;;;5075760;28;20637;-75
2023/04/26 10:03:19;;;;;;;0.83;0.83;;;13.50;83.80;;;;;;5075554;28;20218;-74
2023/04/26 10:05:46;;;;;;;0.50;0.50;;;13.60;85.30;;;;;;5074174;28;20202;-75
2023/04/26 10:08:12;;;;;;;0.80;0.80;;;13.80;83.00;;;;;;5076176;28;20199;-76
2023/04/26 10:10:38;;;;;;;0.70;0.70;;;13.90;83.90;;;;;;5075593;28;20661;-74
2023/04/26 10:13:05;;;;;;;0.80;0.80;;;14.10;81.80;;;;;;5075626;28;20183;-74
2023/04/26 10:15:31;;;;;;;0.90;0.90;;;14.20;79.90;;;;;;5075387;28;20175;-75
2023/04/26 10:17:57;;;;;;;1.50;0.70;;;14.20;80.40;;;;;;5075275;28;20175;-75
2023/04/26 10:20:27;;;;;;;0.73;0.70;;;14.20;77.90;;;;;;5075442;28;20179;-75
2023/04/26 10:23:00;;;;;;;0.70;0.70;;;14.20;78.60;;;;;;5079292;28;20213;-76
2023/04/26 10:25:40;;;;;;;0.60;0.60;;;14.40;80.00;;;;;;5079741;28;20206;-75
2023/04/26 10:28:07;;;;;;;1.37;0.70;;;14.50;78.60;;;;;;5076290;28;20160;-75
2023/04/26 10:30:32;;;;;;;0.80;0.80;;;14.00;78.30;;;;;;5076120;28;20186;-75
2023/04/26 10:32:58;;;;;;;0.70;0.70;;;14.10;78.90;;;;;;5075368;28;20684;-74
2023/04/26 10:35:29;;;;;;;0.60;0.60;;;14.00;78.80;;;;;;5073574;28;20182;-74
2023/04/26 10:38:08;;;;;;;0.60;0.60;;;14.00;77.50;;;;;;5075134;28;20628;-76
2023/04/26 10:40:39;;;;;;;0.70;0.70;;;14.00;78.30;;;;;;5075211;28;20177;-76
2023/04/26 10:43:14;;;;;;;0.60;0.60;;;13.80;77.50;;;;;;5074534;28;20651;-77
2023/04/26 10:45:50;;;;;;;1.70;0.80;;;13.70;77.80;;;;;;5074146;28;20248;-74
2023/04/26 10:48:20;;;;;;;0.57;0.57;;;13.50;78.10;;;;;;5073683;28;20178;-76
2023/04/26 10:51:01;;;;;;;0.73;0.73;;;13.40;78.60;;;;;;5073661;28;20218;-75
2023/04/26 10:53:45;;;;;;;0.87;0.87;;;13.60;79.20;;;;;;5073845;28;20205;-74
2023/04/26 10:56:26;;;;;;;0.87;0.70;;;13.80;78.40;;;;;;5074937;28;20471;-76
2023/04/26 10:59:08;;;;;;;0.93;0.93;;;13.90;77.70;;;;;;5074971;28;20163;-76
2023/04/26 11:01:35;;;;;;;0.50;0.50;;;13.60;77.00;;;;;;5077509;28;20178;-75
2023/04/26 11:04:07;;;;;;;0.67;0.67;;;13.70;77.70;;;;;;5077733;28;20400;-75
2023/04/26 11:06:51;;;;;;;0.63;0.63;;;13.80;78.80;;;;;;5059241;28;20563;-76
2023/04/26 11:09:36;;;;;;;0.87;0.70;;;14.00;76.60;;;;;;5075405;28;20171;-73
2023/04/26 11:12:06;;;;;;;0.60;0.60;;;13.90;76.60;;;;;;5077050;28;20163;-75
2023/04/26 11:14:35;;;;;;;0.70;0.70;;;14.20;76.50;;;;;;5077073;28;20182;-76
2023/04/26 11:17:10;;;;;;;0.77;0.70;;;14.40;77.80;;;;;;5075590;28;20534;-74
2023/04/26 11:19:36;;;;;;;0.70;0.70;;;14.70;75.80;;;;;;5057345;28;20190;-76
2023/04/26 11:22:05;;;;;;;2.33;0.77;;;14.70;73.30;;;;;;5081104;28;20171;-75
2023/04/26 11:24:31;;;;;;;0.70;0.70;;;14.60;74.70;;;;;;5058042;28;20195;-75
2023/04/26 11:26:58;;;;;;;0.83;0.83;;;14.70;73.90;;;;;;5074369;28;20171;-74
2023/04/26 11:29:25;;;;;;;0.70;0.70;;;15.10;74.60;;;;;;5074129;28;20179;-75
2023/04/26 11:31:56;;;;;;;0.70;0.70;;;14.90;73.90;;;;;;5073992;28;20223;-74
2023/04/26 11:34:42;;;;;;;0.70;0.70;;;14.80;73.60;;;;;;5073825;28;20202;-75
2023/04/26 11:37:08;;;;;;;0.70;0.70;;;14.60;72.20;;;;;;5074015;28;20219;-75
2023/04/26 11:39:35;;;;;;;0.60;0.60;;;14.20;73.40;;;;;;5073751;28;20177;-74
2023/04/26 11:42:08;;;;;;;0.60;0.60;;;13.90;73.80;;;;;;5073550;28;20711;-74
2023/04/26 11:44:36;;;;;;;0.60;0.60;;;13.80;73.60;;;;;;5073441;28;20190;-75
2023/04/26 11:47:06;;;;;;;0.70;0.70;;;14.00;74.50;;;;;;5073487;28;20633;-74
2023/04/26 11:49:33;;;;;;;0.97;0.80;;;14.10;74.50;;;;;;5073438;28;20171;-75
2023/04/26 11:52:00;;;;;;;1.17;0.83;;;13.90;73.70;;;;;;5073621;28;20185;-75
2023/04/26 11:54:30;;;;;;;0.57;0.57;;;13.70;73.00;;;;;;5073370;28;20213;-75
2023/04/26 11:56:59;;;;;;;0.83;0.83;;;13.60;73.50;;;;;;5073256;28;20650;-75
2023/04/26 11:59:29;;;;;;;0.67;0.67;;;13.60;73.60;;;;;;5073274;28;20206;-74
2023/04/26 12:01:59;;;;;;;0.50;0.50;;;13.70;72.50;;;;;;5073393;28;20211;-75
2023/04/26 12:04:29;;;;;;;0.53;0.53;;;13.70;71.90;;;;;;5073314;28;20199;-75
2023/04/26 12:06:55;;;;;;;0.87;0.87;;;13.90;72.40;;;;;;5072099;28;20172;-74
2023/04/26 12:09:27;;;;;;;0.80;0.80;;;13.80;71.60;;;;;;5073207;28;20179;-76
2023/04/26 12:11:56;;;;;;;1.00;1.00;;;13.80;71.60;;;;;;5073346;28;20177;-75
2023/04/26 12:14:22;;;;;;;0.73;0.70;;;14.00;72.70;;;;;;5072650;28;20223;-74
2023/04/26 12:16:47;;;;;;;0.80;0.80;;;14.20;71.40;;;;;;5073507;28;20251;-74
2023/04/26 12:19:14;;;;;;;0.93;0.80;;;14.00;70.70;;;;;;5082412;28;20197;-76
2023/04/26 12:21:43;;;;;;;1.70;0.90;;;14.10;70.60;;;;;;5079867;28;20517;-75
2023/04/26 12:24:32;;;;;;;0.90;0.90;;;14.40;71.70;;;;;;5073860;28;20206;-74
2023/04/26 12:26:58;;;;;;;0.83;0.83;;;14.80;70.10;;;;;;5073375;28;20166;-75
2023/04/26 12:29:24;;;;;;;0.70;0.70;;;14.70;68.80;;;;;;5073601;28;20183;-74
2023/04/26 12:31:49;;;;;;;0.70;0.70;;;14.50;68.80;;;;;;5073022;28;20214;-74
2023/04/26 12:34:15;;;;;;;0.93;0.93;;;14.50;69.00;;;;;;5072350;28;20159;-74
2023/04/26 12:36:44;;;;;;;0.70;0.70;;;14.40;68.10;;;;;;5073451;28;20179;-75
2023/04/26 12:39:14;;;;;;;3.87;0.70;;;14.40;68.40;;;;;;5074244;28;20186;-74
2023/04/26 12:41:43;;;;;;;0.70;0.70;;;14.30;67.80;;;;;;5072996;28;20241;-74
2023/04/26 12:44:10;;;;;;;0.70;0.70;;;14.20;68.60;;;;;;5072877;28;20222;-74
2023/04/26 12:46:36;;;;;;;0.70;0.70;;;14.40;68.00;;;;;;5073512;28;20298;-77
2023/04/26 12:49:02;;;;;;;0.80;0.80;;;14.50;67.80;;;;;;5074393;28;20208;-76
2023/04/26 12:51:28;;;;;;;0.70;0.70;;;14.60;67.20;;;;;;5081442;28;20171;-76
2023/04/26 12:53:55;;;;;;;0.93;0.50;;;14.70;66.90;;;;;;5078665;28;20178;-75
2023/04/26 12:56:21;;;;;;;0.77;0.77;;;14.70;68.00;;;;;;5074932;28;20181;-75